KMER/MER METAR and TAF weather

Enter ICAO airport designator
Station Type Date Time Source
KMER METAR 2020/06/06 02:45 UTC NOAA

KMER 060245Z 34007KT 10SM SKC 23/02 A2975


Station Type Date Time Source
KMER Decoded METAR 2020/06/06 02:45 UTC NOAA

Merced / Castle Air Force Base, CA, United States (KMER) 37-22N 120-34W 60M
Jun 05, 2020 - 10:45 PM EDT / 2020.06.06 0245 UTC
Wind: from the NNW (340 degrees) at 8 MPH (7 KT):0
Visibility: 10 mile(s):0
Sky conditions: clear
Temperature: 73 F (23 C)
Dew Point: 35 F (2 C)
Relative Humidity: 25%
Pressure (altimeter): 29.75 in. Hg (1007 hPa)
ob: KMER 060245Z 34007KT 10SM SKC 23/02 A2975
cycle: 3

Station Type Date Time Source
KMER TAF 2020/06/05 18:26 UTC NOAA

TAF KMER 051720Z 0518/0618 27006KT P6SM SKC
FM051900 28008G14KT P6SM SCT200
FM060000 29008G14KT P6SM BKN150
FM060600 30006KT P6SM OVC150
FM061600 32008G13KT P6SM SCT250
AMD NOT SKED

Example: see airport list